sensor_id;sensor_type;location;lat;lon;timestamp;temperature;humidity
27072;DHT22;14613;46.308;25.288;2022-07-22T00:01:17;17.90;57.30
27072;DHT22;14613;46.308;25.288;2022-07-22T00:03:43;17.90;57.40
27072;DHT22;14613;46.308;25.288;2022-07-22T00:06:08;17.90;57.40
27072;DHT22;14613;46.308;25.288;2022-07-22T00:08:34;17.90;57.40
27072;DHT22;14613;46.308;25.288;2022-07-22T00:11:00;17.80;57.40
27072;DHT22;14613;46.308;25.288;2022-07-22T00:13:26;17.80;57.40
27072;DHT22;14613;46.308;25.288;2022-07-22T00:15:51;17.80;57.40
27072;DHT22;14613;46.308;25.288;2022-07-22T00:18:17;17.80;57.50
27072;DHT22;14613;46.308;25.288;2022-07-22T00:20:43;17.80;57.50
27072;DHT22;14613;46.308;25.288;2022-07-22T00:23:09;17.80;57.60
27072;DHT22;14613;46.308;25.288;2022-07-22T00:25:35;17.80;57.70
27072;DHT22;14613;46.308;25.288;2022-07-22T00:28:01;17.80;57.80
27072;DHT22;14613;46.308;25.288;2022-07-22T00:30:26;17.80;57.90
27072;DHT22;14613;46.308;25.288;2022-07-22T00:32:52;17.70;58.00
27072;DHT22;14613;46.308;25.288;2022-07-22T00:35:18;17.70;58.10
27072;DHT22;14613;46.308;25.288;2022-07-22T00:37:44;17.70;58.20
27072;DHT22;14613;46.308;25.288;2022-07-22T00:40:10;17.70;58.30
27072;DHT22;14613;46.308;25.288;2022-07-22T00:42:36;17.60;58.30
27072;DHT22;14613;46.308;25.288;2022-07-22T00:45:02;17.60;58.30
27072;DHT22;14613;46.308;25.288;2022-07-22T00:47:28;17.60;58.40
27072;DHT22;14613;46.308;25.288;2022-07-22T00:49:54;17.50;58.50
27072;DHT22;14613;46.308;25.288;2022-07-22T00:52:19;17.50;58.50
27072;DHT22;14613;46.308;25.288;2022-07-22T00:54:46;17.40;58.60
27072;DHT22;14613;46.308;25.288;2022-07-22T00:57:12;17.40;58.60
27072;DHT22;14613;46.308;25.288;2022-07-22T00:59:38;17.40;58.70
27072;DHT22;14613;46.308;25.288;2022-07-22T01:02:04;17.40;58.70
27072;DHT22;14613;46.308;25.288;2022-07-22T01:04:30;17.30;58.70
27072;DHT22;14613;46.308;25.288;2022-07-22T01:06:56;17.30;58.70
27072;DHT22;14613;46.308;25.288;2022-07-22T01:09:22;17.30;58.80
27072;DHT22;14613;46.308;25.288;2022-07-22T01:11:47;17.30;58.90
27072;DHT22;14613;46.308;25.288;2022-07-22T01:14:13;17.20;58.90
27072;DHT22;14613;46.308;25.288;2022-07-22T01:16:39;17.20;59.00
27072;DHT22;14613;46.308;25.288;2022-07-22T01:19:05;17.20;59.10
27072;DHT22;14613;46.308;25.288;2022-07-22T01:21:31;17.10;59.10
27072;DHT22;14613;46.308;25.288;2022-07-22T01:23:57;17.20;59.20
27072;DHT22;14613;46.308;25.288;2022-07-22T01:26:23;17.00;59.40
27072;DHT22;14613;46.308;25.288;2022-07-22T01:28:49;17.00;59.60
27072;DHT22;14613;46.308;25.288;2022-07-22T01:31:14;16.90;59.60
27072;DHT22;14613;46.308;25.288;2022-07-22T01:33:40;16.90;59.70
27072;DHT22;14613;46.308;25.288;2022-07-22T01:36:08;16.80;59.70
27072;DHT22;14613;46.308;25.288;2022-07-22T01:38:34;16.80;59.80
27072;DHT22;14613;46.308;25.288;2022-07-22T01:41:00;16.80;59.80
27072;DHT22;14613;46.308;25.288;2022-07-22T01:43:25;16.80;59.90
27072;DHT22;14613;46.308;25.288;2022-07-22T01:45:52;16.70;60.00
27072;DHT22;14613;46.308;25.288;2022-07-22T01:48:19;16.80;60.30
27072;DHT22;14613;46.308;25.288;2022-07-22T01:50:46;16.80;60.30
27072;DHT22;14613;46.308;25.288;2022-07-22T01:53:12;16.70;60.20
27072;DHT22;14613;46.308;25.288;2022-07-22T01:55:38;16.70;60.30
27072;DHT22;14613;46.308;25.288;2022-07-22T01:58:04;16.70;60.40
27072;DHT22;14613;46.308;25.288;2022-07-22T02:00:32;16.70;60.50
27072;DHT22;14613;46.308;25.288;2022-07-22T02:02:57;16.70;60.60
27072;DHT22;14613;46.308;25.288;2022-07-22T02:05:23;16.70;60.80
27072;DHT22;14613;46.308;25.288;2022-07-22T02:07:49;16.60;61.00
27072;DHT22;14613;46.308;25.288;2022-07-22T02:10:15;16.60;61.20
27072;DHT22;14613;46.308;25.288;2022-07-22T02:12:41;16.60;61.30
27072;DHT22;14613;46.308;25.288;2022-07-22T02:15:07;16.50;61.40
27072;DHT22;14613;46.308;25.288;2022-07-22T02:17:34;16.50;61.60
27072;DHT22;14613;46.308;25.288;2022-07-22T02:20:00;16.50;61.70
27072;DHT22;14613;46.308;25.288;2022-07-22T02:22:26;16.40;61.80
27072;DHT22;14613;46.308;25.288;2022-07-22T02:24:52;16.40;61.90
27072;DHT22;14613;46.308;25.288;2022-07-22T02:27:18;16.40;62.10
27072;DHT22;14613;46.308;25.288;2022-07-22T02:29:43;16.30;62.20
27072;DHT22;14613;46.308;25.288;2022-07-22T02:32:09;16.30;62.30
27072;DHT22;14613;46.308;25.288;2022-07-22T02:34:35;16.30;62.50
27072;DHT22;14613;46.308;25.288;2022-07-22T02:37:01;16.30;62.50
27072;DHT22;14613;46.308;25.288;2022-07-22T02:39:27;16.30;62.60
27072;DHT22;14613;46.308;25.288;2022-07-22T02:41:52;16.30;62.70
27072;DHT22;14613;46.308;25.288;2022-07-22T02:44:18;16.20;62.80
27072;DHT22;14613;46.308;25.288;2022-07-22T02:46:44;16.20;62.80
27072;DHT22;14613;46.308;25.288;2022-07-22T02:49:10;16.20;63.00
27072;DHT22;14613;46.308;25.288;2022-07-22T02:51:36;16.10;63.00
27072;DHT22;14613;46.308;25.288;2022-07-22T02:54:02;16.00;63.30
27072;DHT22;14613;46.308;25.288;2022-07-22T02:56:27;15.90;63.60
27072;DHT22;14613;46.308;25.288;2022-07-22T02:58:53;15.70;63.80
27072;DHT22;14613;46.308;25.288;2022-07-22T03:01:20;15.70;64.00
27072;DHT22;14613;46.308;25.288;2022-07-22T03:03:47;15.70;64.10
27072;DHT22;14613;46.308;25.288;2022-07-22T03:06:12;15.70;64.10
27072;DHT22;14613;46.308;25.288;2022-07-22T03:08:39;15.60;64.00
27072;DHT22;14613;46.308;25.288;2022-07-22T03:11:05;15.70;64.10
27072;DHT22;14613;46.308;25.288;2022-07-22T03:13:31;15.70;64.30
27072;DHT22;14613;46.308;25.288;2022-07-22T03:15:57;15.70;64.40
27072;DHT22;14613;46.308;25.288;2022-07-22T03:18:23;15.90;64.50
27072;DHT22;14613;46.308;25.288;2022-07-22T03:20:49;16.00;64.50
27072;DHT22;14613;46.308;25.288;2022-07-22T03:23:15;16.20;64.40
27072;DHT22;14613;46.308;25.288;2022-07-22T03:25:40;16.40;64.20
27072;DHT22;14613;46.308;25.288;2022-07-22T03:28:07;16.60;63.90
27072;DHT22;14613;46.308;25.288;2022-07-22T03:30:33;16.90;63.70
27072;DHT22;14613;46.308;25.288;2022-07-22T03:32:58;17.20;63.30
27072;DHT22;14613;46.308;25.288;2022-07-22T03:35:24;17.50;63.00
27072;DHT22;14613;46.308;25.288;2022-07-22T03:37:50;17.80;62.50
27072;DHT22;14613;46.308;25.288;2022-07-22T03:40:16;18.10;62.10
27072;DHT22;14613;46.308;25.288;2022-07-22T03:42:42;18.40;61.40
27072;DHT22;14613;46.308;25.288;2022-07-22T03:45:08;18.60;60.90
27072;DHT22;14613;46.308;25.288;2022-07-22T03:47:35;18.90;60.50
27072;DHT22;14613;46.308;25.288;2022-07-22T03:50:00;19.20;59.90
27072;DHT22;14613;46.308;25.288;2022-07-22T03:52:30;19.50;59.30
27072;DHT22;14613;46.308;25.288;2022-07-22T03:54:56;19.70;58.80
27072;DHT22;14613;46.308;25.288;2022-07-22T03:57:22;19.80;58.40
27072;DHT22;14613;46.308;25.288;2022-07-22T03:59:48;20.10;58.30
27072;DHT22;14613;46.308;25.288;2022-07-22T04:02:14;20.40;57.70
27072;DHT22;14613;46.308;25.288;2022-07-22T04:04:40;20.80;57.50
27072;DHT22;14613;46.308;25.288;2022-07-22T04:07:05;21.20;57.10
27072;DHT22;14613;46.308;25.288;2022-07-22T04:09:31;21.60;56.60
27072;DHT22;14613;46.308;25.288;2022-07-22T04:11:57;22.10;55.90
27072;DHT22;14613;46.308;25.288;2022-07-22T04:14:23;22.50;55.20
27072;DHT22;14613;46.308;25.288;2022-07-22T04:16:48;22.90;54.50
27072;DHT22;14613;46.308;25.288;2022-07-22T04:19:14;23.30;53.90
27072;DHT22;14613;46.308;25.288;2022-07-22T04:21:41;23.60;53.20
27072;DHT22;14613;46.308;25.288;2022-07-22T04:24:08;23.90;52.50
27072;DHT22;14613;46.308;25.288;2022-07-22T04:26:34;24.20;51.90
27072;DHT22;14613;46.308;25.288;2022-07-22T04:29:02;24.50;51.30
27072;DHT22;14613;46.308;25.288;2022-07-22T04:31:28;24.80;50.70
27072;DHT22;14613;46.308;25.288;2022-07-22T04:33:54;25.10;50.10
27072;DHT22;14613;46.308;25.288;2022-07-22T04:36:19;25.40;49.60
27072;DHT22;14613;46.308;25.288;2022-07-22T04:38:45;25.70;49.00
27072;DHT22;14613;46.308;25.288;2022-07-22T04:41:11;26.00;48.40
27072;DHT22;14613;46.308;25.288;2022-07-22T04:43:37;26.20;47.70
27072;DHT22;14613;46.308;25.288;2022-07-22T04:46:03;26.50;47.40
27072;DHT22;14613;46.308;25.288;2022-07-22T04:48:29;26.80;47.00
27072;DHT22;14613;46.308;25.288;2022-07-22T04:51:01;27.10;46.50
27072;DHT22;14613;46.308;25.288;2022-07-22T04:53:27;27.40;45.90
27072;DHT22;14613;46.308;25.288;2022-07-22T04:55:53;27.60;45.50
27072;DHT22;14613;46.308;25.288;2022-07-22T04:58:19;27.90;45.00
27072;DHT22;14613;46.308;25.288;2022-07-22T05:00:46;28.10;44.30
27072;DHT22;14613;46.308;25.288;2022-07-22T05:03:12;28.30;43.70
27072;DHT22;14613;46.308;25.288;2022-07-22T05:05:38;28.20;43.00
27072;DHT22;14613;46.308;25.288;2022-07-22T05:08:04;28.20;43.00
27072;DHT22;14613;46.308;25.288;2022-07-22T05:10:30;28.20;42.70
27072;DHT22;14613;46.308;25.288;2022-07-22T05:12:55;28.30;42.20
27072;DHT22;14613;46.308;25.288;2022-07-22T05:15:21;28.20;41.90
27072;DHT22;14613;46.308;25.288;2022-07-22T05:17:47;28.20;41.80
27072;DHT22;14613;46.308;25.288;2022-07-22T05:20:13;28.30;41.60
27072;DHT22;14613;46.308;25.288;2022-07-22T05:22:39;28.40;41.40
27072;DHT22;14613;46.308;25.288;2022-07-22T05:25:05;28.70;41.20
27072;DHT22;14613;46.308;25.288;2022-07-22T05:27:31;29.10;40.80
27072;DHT22;14613;46.308;25.288;2022-07-22T05:29:57;29.30;40.30
27072;DHT22;14613;46.308;25.288;2022-07-22T05:32:23;29.60;39.60
27072;DHT22;14613;46.308;25.288;2022-07-22T05:34:49;29.70;39.40
27072;DHT22;14613;46.308;25.288;2022-07-22T05:37:14;29.90;39.40
27072;DHT22;14613;46.308;25.288;2022-07-22T05:39:43;30.20;39.30
27072;DHT22;14613;46.308;25.288;2022-07-22T05:42:08;30.50;38.70
27072;DHT22;14613;46.308;25.288;2022-07-22T05:44:34;30.70;37.90
27072;DHT22;14613;46.308;25.288;2022-07-22T05:47:00;30.50;37.50
27072;DHT22;14613;46.308;25.288;2022-07-22T05:49:26;30.70;37.80
27072;DHT22;14613;46.308;25.288;2022-07-22T05:51:53;30.80;37.60
27072;DHT22;14613;46.308;25.288;2022-07-22T05:54:20;31.00;37.10
27072;DHT22;14613;46.308;25.288;2022-07-22T05:56:45;31.20;37.00
27072;DHT22;14613;46.308;25.288;2022-07-22T05:59:11;31.60;36.70
27072;DHT22;14613;46.308;25.288;2022-07-22T06:01:37;31.80;36.20
27072;DHT22;14613;46.308;25.288;2022-07-22T06:04:03;32.10;36.00
27072;DHT22;14613;46.308;25.288;2022-07-22T06:06:28;32.40;35.60
27072;DHT22;14613;46.308;25.288;2022-07-22T06:08:54;32.70;35.40
27072;DHT22;14613;46.308;25.288;2022-07-22T06:11:20;32.90;35.00
27072;DHT22;14613;46.308;25.288;2022-07-22T06:13:46;33.20;34.60
27072;DHT22;14613;46.308;25.288;2022-07-22T06:16:12;33.40;34.50
27072;DHT22;14613;46.308;25.288;2022-07-22T06:18:37;33.60;34.30
27072;DHT22;14613;46.308;25.288;2022-07-22T06:21:04;33.70;34.10
27072;DHT22;14613;46.308;25.288;2022-07-22T06:23:30;33.90;34.10
27072;DHT22;14613;46.308;25.288;2022-07-22T06:25:56;34.10;33.80
27072;DHT22;14613;46.308;25.288;2022-07-22T06:28:23;34.20;33.50
27072;DHT22;14613;46.308;25.288;2022-07-22T06:30:48;34.40;33.30
27072;DHT22;14613;46.308;25.288;2022-07-22T06:33:14;34.60;33.20
27072;DHT22;14613;46.308;25.288;2022-07-22T06:35:41;34.70;32.90
27072;DHT22;14613;46.308;25.288;2022-07-22T06:38:07;34.90;33.30
27072;DHT22;14613;46.308;25.288;2022-07-22T06:40:36;35.00;32.50
27072;DHT22;14613;46.308;25.288;2022-07-22T06:43:02;35.20;32.20
27072;DHT22;14613;46.308;25.288;2022-07-22T06:45:28;35.30;31.60
27072;DHT22;14613;46.308;25.288;2022-07-22T06:47:54;35.30;30.90
27072;DHT22;14613;46.308;25.288;2022-07-22T06:50:20;35.20;30.70
27072;DHT22;14613;46.308;25.288;2022-07-22T06:52:45;35.30;30.90
27072;DHT22;14613;46.308;25.288;2022-07-22T06:55:12;35.30;30.60
27072;DHT22;14613;46.308;25.288;2022-07-22T06:57:37;35.40;30.40
27072;DHT22;14613;46.308;25.288;2022-07-22T07:00:05;35.40;30.30
27072;DHT22;14613;46.308;25.288;2022-07-22T07:02:32;35.60;30.40
27072;DHT22;14613;46.308;25.288;2022-07-22T07:04:58;35.70;30.30
27072;DHT22;14613;46.308;25.288;2022-07-22T07:07:24;35.90;30.00
27072;DHT22;14613;46.308;25.288;2022-07-22T07:09:50;36.00;29.60
27072;DHT22;14613;46.308;25.288;2022-07-22T07:12:16;35.90;29.30
27072;DHT22;14613;46.308;25.288;2022-07-22T07:14:42;35.50;29.10
27072;DHT22;14613;46.308;25.288;2022-07-22T07:17:07;35.20;29.20
27072;DHT22;14613;46.308;25.288;2022-07-22T07:19:33;35.10;29.10
27072;DHT22;14613;46.308;25.288;2022-07-22T07:21:59;34.80;29.10
27072;DHT22;14613;46.308;25.288;2022-07-22T07:24:25;34.70;29.50
27072;DHT22;14613;46.308;25.288;2022-07-22T07:26:51;34.80;29.50
27072;DHT22;14613;46.308;25.288;2022-07-22T07:29:16;34.80;29.20
27072;DHT22;14613;46.308;25.288;2022-07-22T07:31:42;34.70;29.20
27072;DHT22;14613;46.308;25.288;2022-07-22T07:34:08;34.60;29.30
27072;DHT22;14613;46.308;25.288;2022-07-22T07:36:34;34.60;29.30
27072;DHT22;14613;46.308;25.288;2022-07-22T07:38:59;34.60;29.20
27072;DHT22;14613;46.308;25.288;2022-07-22T07:41:25;34.60;29.20
27072;DHT22;14613;46.308;25.288;2022-07-22T07:43:51;34.60;29.20
27072;DHT22;14613;46.308;25.288;2022-07-22T07:46:17;34.60;29.20
27072;DHT22;14613;46.308;25.288;2022-07-22T07:48:42;34.70;29.40
27072;DHT22;14613;46.308;25.288;2022-07-22T07:51:08;35.00;29.60
27072;DHT22;14613;46.308;25.288;2022-07-22T07:53:34;35.30;29.60
27072;DHT22;14613;46.308;25.288;2022-07-22T07:56:00;35.60;29.60
27072;DHT22;14613;46.308;25.288;2022-07-22T07:58:25;35.70;29.50
27072;DHT22;14613;46.308;25.288;2022-07-22T08:00:51;35.70;29.60
27072;DHT22;14613;46.308;25.288;2022-07-22T08:03:17;35.80;29.70
27072;DHT22;14613;46.308;25.288;2022-07-22T08:05:43;35.90;29.60
27072;DHT22;14613;46.308;25.288;2022-07-22T08:08:09;36.00;29.60
27072;DHT22;14613;46.308;25.288;2022-07-22T08:10:35;36.00;29.60
27072;DHT22;14613;46.308;25.288;2022-07-22T08:13:01;36.10;29.50
27072;DHT22;14613;46.308;25.288;2022-07-22T08:15:27;36.20;29.40
27072;DHT22;14613;46.308;25.288;2022-07-22T08:17:54;36.40;29.30
27072;DHT22;14613;46.308;25.288;2022-07-22T08:20:21;36.50;29.20
27072;DHT22;14613;46.308;25.288;2022-07-22T08:22:47;36.50;28.90
27072;DHT22;14613;46.308;25.288;2022-07-22T08:25:13;36.50;28.80
27072;DHT22;14613;46.308;25.288;2022-07-22T08:27:39;36.50;28.70
27072;DHT22;14613;46.308;25.288;2022-07-22T08:30:06;36.30;28.30
27072;DHT22;14613;46.308;25.288;2022-07-22T08:32:33;36.20;28.40
27072;DHT22;14613;46.308;25.288;2022-07-22T08:34:59;36.20;28.40
27072;DHT22;14613;46.308;25.288;2022-07-22T08:37:25;36.30;28.50
27072;DHT22;14613;46.308;25.288;2022-07-22T08:39:51;36.40;28.30
27072;DHT22;14613;46.308;25.288;2022-07-22T08:42:16;36.50;28.00
27072;DHT22;14613;46.308;25.288;2022-07-22T08:44:43;36.20;27.80
27072;DHT22;14613;46.308;25.288;2022-07-22T08:47:09;36.10;28.10
27072;DHT22;14613;46.308;25.288;2022-07-22T08:49:35;36.20;28.10
27072;DHT22;14613;46.308;25.288;2022-07-22T08:52:01;36.30;27.80
27072;DHT22;14613;46.308;25.288;2022-07-22T08:54:27;36.20;27.70
27072;DHT22;14613;46.308;25.288;2022-07-22T08:56:53;36.20;28.20
27072;DHT22;14613;46.308;25.288;2022-07-22T08:59:18;36.40;28.30
27072;DHT22;14613;46.308;25.288;2022-07-22T09:04:31;36.80;28.00
27072;DHT22;14613;46.308;25.288;2022-07-22T09:06:58;36.90;28.00
27072;DHT22;14613;46.308;25.288;2022-07-22T09:09:34;37.10;27.90
27072;DHT22;14613;46.308;25.288;2022-07-22T09:12:07;37.10;27.70
27072;DHT22;14613;46.308;25.288;2022-07-22T09:14:44;37.10;27.70
27072;DHT22;14613;46.308;25.288;2022-07-22T09:17:25;37.20;28.00
27072;DHT22;14613;46.308;25.288;2022-07-22T09:19:51;37.30;28.10
27072;DHT22;14613;46.308;25.288;2022-07-22T09:22:34;37.40;28.10
27072;DHT22;14613;46.308;25.288;2022-07-22T09:25:30;37.60;28.10
27072;DHT22;14613;46.308;25.288;2022-07-22T09:30:55;38.00;28.00
27072;DHT22;14613;46.308;25.288;2022-07-22T09:33:22;38.10;27.70
27072;DHT22;14613;46.308;25.288;2022-07-22T09:35:48;38.20;27.70
27072;DHT22;14613;46.308;25.288;2022-07-22T09:38:16;38.30;27.70
27072;DHT22;14613;46.308;25.288;2022-07-22T09:40:47;38.30;27.70
27072;DHT22;14613;46.308;25.288;2022-07-22T09:43:19;38.40;27.60
27072;DHT22;14613;46.308;25.288;2022-07-22T09:45:49;38.40;27.60
27072;DHT22;14613;46.308;25.288;2022-07-22T09:48:17;38.40;27.40
27072;DHT22;14613;46.308;25.288;2022-07-22T09:50:43;38.40;27.10
27072;DHT22;14613;46.308;25.288;2022-07-22T09:53:10;38.40;27.20
27072;DHT22;14613;46.308;25.288;2022-07-22T09:55:38;38.40;27.20
27072;DHT22;14613;46.308;25.288;2022-07-22T09:58:04;38.50;27.10
27072;DHT22;14613;46.308;25.288;2022-07-22T10:00:34;38.50;27.20
27072;DHT22;14613;46.308;25.288;2022-07-22T10:03:01;38.60;27.30
27072;DHT22;14613;46.308;25.288;2022-07-22T10:05:30;38.70;27.00
27072;DHT22;14613;46.308;25.288;2022-07-22T10:07:57;38.70;26.80
27072;DHT22;14613;46.308;25.288;2022-07-22T10:10:28;38.60;26.50
27072;DHT22;14613;46.308;25.288;2022-07-22T10:12:56;38.50;26.20
27072;DHT22;14613;46.308;25.288;2022-07-22T10:15:24;38.40;26.40
27072;DHT22;14613;46.308;25.288;2022-07-22T10:17:52;38.30;26.50
27072;DHT22;14613;46.308;25.288;2022-07-22T10:20:24;38.30;26.50
27072;DHT22;14613;46.308;25.288;2022-07-22T10:25:23;38.10;26.60
27072;DHT22;14613;46.308;25.288;2022-07-22T10:27:56;38.10;26.70
27072;DHT22;14613;46.308;25.288;2022-07-22T10:30:34;38.30;26.70
27072;DHT22;14613;46.308;25.288;2022-07-22T10:33:14;38.30;26.60
27072;DHT22;14613;46.308;25.288;2022-07-22T10:38:11;38.40;26.60
27072;DHT22;14613;46.308;25.288;2022-07-22T10:41:00;38.50;26.70
27072;DHT22;14613;46.308;25.288;2022-07-22T10:43:30;38.50;26.70
27072;DHT22;14613;46.308;25.288;2022-07-22T10:46:00;38.60;26.60
27072;DHT22;14613;46.308;25.288;2022-07-22T10:53:41;38.50;26.30
27072;DHT22;14613;46.308;25.288;2022-07-22T11:01:29;38.00;26.30
27072;DHT22;14613;46.308;25.288;2022-07-22T11:03:56;38.10;26.60
27072;DHT22;14613;46.308;25.288;2022-07-22T11:06:31;38.20;26.70
27072;DHT22;14613;46.308;25.288;2022-07-22T11:09:00;38.30;26.60
27072;DHT22;14613;46.308;25.288;2022-07-22T11:16:39;38.30;26.50
27072;DHT22;14613;46.308;25.288;2022-07-22T11:19:05;38.30;26.50
27072;DHT22;14613;46.308;25.288;2022-07-22T11:21:33;38.10;26.30
27072;DHT22;14613;46.308;25.288;2022-07-22T11:24:01;38.00;26.50
27072;DHT22;14613;46.308;25.288;2022-07-22T11:26:44;38.00;26.70
27072;DHT22;14613;46.308;25.288;2022-07-22T11:31:43;38.00;26.80
27072;DHT22;14613;46.308;25.288;2022-07-22T11:34:11;38.10;26.90
27072;DHT22;14613;46.308;25.288;2022-07-22T11:36:39;38.10;26.80
27072;DHT22;14613;46.308;25.288;2022-07-22T11:39:06;38.10;26.80
27072;DHT22;14613;46.308;25.288;2022-07-22T11:41:33;38.10;26.90
27072;DHT22;14613;46.308;25.288;2022-07-22T11:44:00;38.20;26.70
27072;DHT22;14613;46.308;25.288;2022-07-22T11:46:26;38.20;26.70
27072;DHT22;14613;46.308;25.288;2022-07-22T11:48:53;38.30;27.00
27072;DHT22;14613;46.308;25.288;2022-07-22T11:51:19;38.30;26.80
27072;DHT22;14613;46.308;25.288;2022-07-22T11:53:45;38.30;26.70
27072;DHT22;14613;46.308;25.288;2022-07-22T11:56:11;38.20;26.80
27072;DHT22;14613;46.308;25.288;2022-07-22T11:58:46;38.30;26.90
27072;DHT22;14613;46.308;25.288;2022-07-22T12:01:14;38.30;26.70
27072;DHT22;14613;46.308;25.288;2022-07-22T12:03:45;38.30;26.70
27072;DHT22;14613;46.308;25.288;2022-07-22T12:06:12;38.30;26.50
27072;DHT22;14613;46.308;25.288;2022-07-22T12:08:41;38.30;26.40
27072;DHT22;14613;46.308;25.288;2022-07-22T12:11:09;38.20;26.10
27072;DHT22;14613;46.308;25.288;2022-07-22T12:13:35;38.20;26.20
27072;DHT22;14613;46.308;25.288;2022-07-22T12:16:17;38.30;26.30
27072;DHT22;14613;46.308;25.288;2022-07-22T12:18:43;38.30;26.10
27072;DHT22;14613;46.308;25.288;2022-07-22T12:21:09;38.20;25.90
27072;DHT22;14613;46.308;25.288;2022-07-22T12:23:35;38.00;25.80
27072;DHT22;14613;46.308;25.288;2022-07-22T12:26:02;37.90;26.20
27072;DHT22;14613;46.308;25.288;2022-07-22T12:28:28;37.90;26.40
27072;DHT22;14613;46.308;25.288;2022-07-22T12:30:55;37.90;26.50
27072;DHT22;14613;46.308;25.288;2022-07-22T12:33:22;37.90;26.40
27072;DHT22;14613;46.308;25.288;2022-07-22T12:36:02;37.90;26.50
27072;DHT22;14613;46.308;25.288;2022-07-22T12:38:28;38.00;26.50
27072;DHT22;14613;46.308;25.288;2022-07-22T12:40:54;38.00;26.60
27072;DHT22;14613;46.308;25.288;2022-07-22T12:43:24;38.10;26.70
27072;DHT22;14613;46.308;25.288;2022-07-22T12:45:51;38.10;26.50
27072;DHT22;14613;46.308;25.288;2022-07-22T12:48:17;38.10;26.40
27072;DHT22;14613;46.308;25.288;2022-07-22T12:50:57;38.00;26.30
27072;DHT22;14613;46.308;25.288;2022-07-22T12:53:25;38.00;26.30
27072;DHT22;14613;46.308;25.288;2022-07-22T12:55:52;38.10;26.60
27072;DHT22;14613;46.308;25.288;2022-07-22T12:58:21;38.10;26.60
27072;DHT22;14613;46.308;25.288;2022-07-22T13:00:53;38.20;26.60
27072;DHT22;14613;46.308;25.288;2022-07-22T13:03:20;38.20;26.50
27072;DHT22;14613;46.308;25.288;2022-07-22T13:05:52;38.20;26.50
27072;DHT22;14613;46.308;25.288;2022-07-22T13:08:19;38.20;26.40
27072;DHT22;14613;46.308;25.288;2022-07-22T13:10:44;38.20;26.50
27072;DHT22;14613;46.308;25.288;2022-07-22T13:13:10;38.20;26.60
27072;DHT22;14613;46.308;25.288;2022-07-22T13:15:36;38.10;26.70
27072;DHT22;14613;46.308;25.288;2022-07-22T13:18:03;38.10;26.70
27072;DHT22;14613;46.308;25.288;2022-07-22T13:20:29;38.10;26.50
27072;DHT22;14613;46.308;25.288;2022-07-22T13:22:55;38.00;26.40
27072;DHT22;14613;46.308;25.288;2022-07-22T13:25:21;38.00;26.40
27072;DHT22;14613;46.308;25.288;2022-07-22T13:27:47;38.00;26.50
27072;DHT22;14613;46.308;25.288;2022-07-22T13:30:13;37.90;26.50
27072;DHT22;14613;46.308;25.288;2022-07-22T13:32:39;37.90;26.50
27072;DHT22;14613;46.308;25.288;2022-07-22T13:35:05;37.90;26.60
27072;DHT22;14613;46.308;25.288;2022-07-22T13:37:30;38.00;26.70
27072;DHT22;14613;46.308;25.288;2022-07-22T13:39:56;37.90;26.60
27072;DHT22;14613;46.308;25.288;2022-07-22T13:42:22;37.90;26.50
27072;DHT22;14613;46.308;25.288;2022-07-22T13:44:49;37.80;26.60
27072;DHT22;14613;46.308;25.288;2022-07-22T13:47:17;37.70;26.50
27072;DHT22;14613;46.308;25.288;2022-07-22T13:49:43;37.50;26.40
27072;DHT22;14613;46.308;25.288;2022-07-22T13:52:11;37.50;26.70
27072;DHT22;14613;46.308;25.288;2022-07-22T13:54:37;37.40;26.70
27072;DHT22;14613;46.308;25.288;2022-07-22T13:57:04;37.50;26.80
27072;DHT22;14613;46.308;25.288;2022-07-22T13:59:30;37.50;27.00
27072;DHT22;14613;46.308;25.288;2022-07-22T14:01:57;37.50;27.00
27072;DHT22;14613;46.308;25.288;2022-07-22T14:04:23;37.40;26.90
27072;DHT22;14613;46.308;25.288;2022-07-22T14:06:49;37.40;26.80
27072;DHT22;14613;46.308;25.288;2022-07-22T14:09:15;37.40;26.80
27072;DHT22;14613;46.308;25.288;2022-07-22T14:11:41;37.40;26.80
27072;DHT22;14613;46.308;25.288;2022-07-22T14:14:06;37.40;26.90
27072;DHT22;14613;46.308;25.288;2022-07-22T14:16:33;37.40;26.90
27072;DHT22;14613;46.308;25.288;2022-07-22T14:18:59;37.40;26.80
27072;DHT22;14613;46.308;25.288;2022-07-22T14:21:25;37.40;26.90
27072;DHT22;14613;46.308;25.288;2022-07-22T14:23:51;37.40;26.90
27072;DHT22;14613;46.308;25.288;2022-07-22T14:26:17;37.40;26.90
27072;DHT22;14613;46.308;25.288;2022-07-22T14:28:43;37.30;26.90
27072;DHT22;14613;46.308;25.288;2022-07-22T14:31:08;37.30;27.00
27072;DHT22;14613;46.308;25.288;2022-07-22T14:33:34;37.20;27.00
27072;DHT22;14613;46.308;25.288;2022-07-22T14:36:00;37.20;26.90
27072;DHT22;14613;46.308;25.288;2022-07-22T14:38:26;37.10;27.00
27072;DHT22;14613;46.308;25.288;2022-07-22T14:40:51;36.90;27.50
27072;DHT22;14613;46.308;25.288;2022-07-22T14:43:17;36.80;27.00
27072;DHT22;14613;46.308;25.288;2022-07-22T14:45:43;36.70;27.00
27072;DHT22;14613;46.308;25.288;2022-07-22T14:48:09;36.60;27.10
27072;DHT22;14613;46.308;25.288;2022-07-22T14:50:34;36.50;27.30
27072;DHT22;14613;46.308;25.288;2022-07-22T14:53:00;36.50;27.40
27072;DHT22;14613;46.308;25.288;2022-07-22T14:55:26;36.40;27.40
27072;DHT22;14613;46.308;25.288;2022-07-22T14:57:52;36.40;27.40
27072;DHT22;14613;46.308;25.288;2022-07-22T15:00:17;36.30;27.40
27072;DHT22;14613;46.308;25.288;2022-07-22T15:02:43;36.30;27.50
27072;DHT22;14613;46.308;25.288;2022-07-22T15:05:09;36.20;27.50
27072;DHT22;14613;46.308;25.288;2022-07-22T15:07:35;36.20;27.60
27072;DHT22;14613;46.308;25.288;2022-07-22T15:10:01;36.20;27.60
27072;DHT22;14613;46.308;25.288;2022-07-22T15:12:26;36.10;27.60
27072;DHT22;14613;46.308;25.288;2022-07-22T15:14:52;36.00;27.60
27072;DHT22;14613;46.308;25.288;2022-07-22T15:17:18;36.00;27.70
27072;DHT22;14613;46.308;25.288;2022-07-22T15:19:44;35.90;27.70
27072;DHT22;14613;46.308;25.288;2022-07-22T15:22:10;35.80;27.70
27072;DHT22;14613;46.308;25.288;2022-07-22T15:24:35;35.70;27.80
27072;DHT22;14613;46.308;25.288;2022-07-22T15:27:02;35.60;27.90
27072;DHT22;14613;46.308;25.288;2022-07-22T15:29:28;35.50;27.90
27072;DHT22;14613;46.308;25.288;2022-07-22T15:31:54;35.50;28.00
27072;DHT22;14613;46.308;25.288;2022-07-22T15:34:20;35.50;28.10
27072;DHT22;14613;46.308;25.288;2022-07-22T15:36:46;35.40;28.10
27072;DHT22;14613;46.308;25.288;2022-07-22T15:39:12;35.30;28.10
27072;DHT22;14613;46.308;25.288;2022-07-22T15:41:39;35.30;28.20